Jaipur, India

7:05 AM IST on July 26, 2016 (GMT +0530)
Jaipur | | Change Station

Elev 1280 ft 26.82 °N, 75.81 °E | Updated 5 minutes ago

Haze
Haze
84 °F
Feels Like 92 °F
N
1
Wind Variable Wind from Variable

Today
High -- | Low -- °F
--% Chance of Precip.
Yesterday
High -- | Low -- °F
Precip. -- in
Pressure 29.68 in
Visibility 3.1 miles
Clouds Scattered Clouds 10000 ft
Heat Index 92 °F
Dew Point 75 °F
Humidity 74%
Rainfall 0.00 in
Snow Depth Not available.
5:48 AM 7:18 PM
Waning Gibbous, 60% visible
METAR VIJP 260130Z VRB01KT 5000 HZ FVEW035 SCT100 29/24 Q1005 NOSIG
Pressure 29.68 in
Visibility 3.1 miles
Clouds Scattered Clouds 10000 ft
Heat Index 92 °F
Dew Point 75 °F
Humidity 74%
Rainfall 0.00 in
Snow Depth Not available.
5:48 AM 7:18 PM
Waning Gibbous, 60% visible
METAR VIJP 260130Z VRB01KT 5000 HZ FVEW035 SCT100 29/24 Q1005 NOSIG

10-Day Weather Forecast

No radar image for this location.
×

Almanac

Astronomy

Jul. 26, 2016 Rise Set
Actual Time
Civil Twilight
Nautical Twilight
Astronomical Twilight
Moon
Length of Visible Light
Length of Day
Tomorrow will be .
, % of the Moon is Illuminated

Today's Extremes

Country Highs Country Lows

Community

WunderPhotos

Upload Photos

1,927,489 photos uploaded!

WunderBlog® & News

Nearby

Air Quality

  Air Quality AQ Index Pollutant
Not available.

Snow Depth

Station Depth Elevation

Earthquake Activity

City Distance Mag. Time & Date
Minimum magnitude displayed is 2.5.

Coastal Water Temperatures

Place Temperature

Stations

Nearby Weather Stations

Station Location Temp. Windchill Dew Point Humidity Wind Precip. Elev Updated Type